Needles Airport
KEED : now visible

Airfield :











YOU CAN JOIN US ON...

 
LOGIN :

Register | Disclaimer

   EN    FR    IT 

 









Legend :    VFR   Marginal VFR   IFR   Intensive IFR   Very Intensive IFR
Visi :
Ceiling :
>= 8 km
>= 3000ft
5 to 8 km
1000 to 3000 ft
1500m to 5 km
500 to 1000 ft
800 to 1500m
200 to 500 ft
< 800m
< 200 ft
Symbols :   Thunderstorms  Fog  Heavy snow  Heavy precipitations  Wind > 20 kt






- Airport Elevation : 983 ft


KEED - Needles

CURRENT METAR :
  • 280056Z AUTO 35013KT 10SM CLR 19/M15 A3003 RMK AO2 SLP153 T01891150

EXPIRED METARs :
  • 272356Z AUTO 35019KT 10SM CLR 20/M16 A3003 RMK AO2 PK WND 35027/2323 SLP152 T02001161 10206 20178 56009
  • 272256Z AUTO 35021G27KT 10SM CLR 21/M16 A3003 RMK AO2 PK WND 35027/2255 SLP154 T02061161

TAF KEED
Valid from the 28 at 00:00 until the 29 at 00:00 UTC


272320Z 2800/2824 35013G22KT P6SM SKC
FM280200 31009KT P6SM SKC
FM280900 VRB05KT P6SM SKC
KZLA FIR / North America



MET'MAP, your aeronautical weather chart ! - Copyright ORBIFLY December 2007 - Disclaimer

ORBIFLY MET'MAP TEAM :

Programming & Development : Alexandra Zaïnal
Concept & original design : Baudouin d'Aumeries
Assistance for programming : Marc-Olivier Méhu
Technical & hardware support : Manuel Goepfert

Contact : metmap@orbifly.com




SOURCES & CREDITS :

   NOAA       Earth
Advisory